Sunday, April 22, 2018, 12:58 AM GMT
Back to Local

CWAF, Ile Rouge Meteorological Aeronautical Presentation System

Location: , , Canada Lat: 48.083
Local Time: 12:58 AM GMT ( 0:58 GMT) Lon: -69.55
Time Zone: GMT Elev: 16 ft

Show me the last for .
Show Coded

Time T Td Feel RH Dir Speed Gust Alt SLP Vis Weather Sky Remarks
2018-04-22 00:00 40 27 31 59 300° 16 - - - 0 None
2018-04-21 23:00 40 27 31 58 300° 16 - - - 0 Peak wind: 21 mph (19 kts) from 300° at 38 min
2018-04-21 22:00 41 27 32 56 300° 18 - - - 0 Peak wind: 25 mph (22 kts) from 300° at 19 min
2018-04-21 21:00 42 27 33 54 300° 20 - - - 0 Peak wind: 23 mph (20 kts) from 290° at 57 min
2018-04-21 20:00 44 24 42 45 190° 3 - - - 0 None
2018-04-21 19:00 40 29 35 65 180° 8 - - - 0 None
2018-04-21 18:00 40 30 36 67 190° 6 - - - 0 None
2018-04-21 17:00 40 29 35 65 180° 7 - - - 0 1-hr Precip Total: 0.01"
2018-04-21 16:00 38 28 33 67 120° 6 - - - 0 None
2018-04-21 15:00 40 26 38 56 70° 3 - - - 0 None
2018-04-21 14:00 38 26 32 61 310° 8 - - - 0 None
2018-04-21 13:00 36 26 27 65 300° 16 - - - 0 Peak wind: 19 mph (17 kts) from 300° at 51 min
2018-04-21 12:00 36 25 26 65 310° 17 - - - 0 Peak wind: 21 mph (19 kts) from 300° at 37 min
2018-04-21 11:00 35 27 25 70 300° 18 - - - 0 Peak wind: 20 mph (18 kts) from 300° at 58 min
2018-04-21 10:00 35 28 25 76 310° 16 - - - 0 None
2018-04-21 09:00 35 28 26 76 310° 14 - - - 0 Peak wind: 19 mph (17 kts) from 320° at 08 min
2018-04-21 08:00 36 27 26 71 310° 15 - - - 0 Peak wind: 20 mph (18 kts) from 310° at 09 min
2018-04-21 07:00 36 29 26 75 320° 18 - - - 0 Peak wind: 21 mph (19 kts) from 320° at 10 min
2018-04-21 06:00 36 31 26 79 320° 17 - - - 0 Peak wind: 23 mph (20 kts) from 310° at 06 min
2018-04-21 05:00 36 31 26 82 310° 17 - - - 0 Peak wind: 20 mph (18 kts) from 300° at 08 min
2018-04-21 04:00 36 31 27 82 310° 15 - - - 0 Peak wind: 23 mph (20 kts) from 300° at 39 min
2018-04-21 03:00 36 32 26 83 300° 17 - - - 0 Peak wind: 21 mph (19 kts) from 290° at 12 min
2018-04-21 02:00 37 32 27 81 300° 18 - - - 0 Peak wind: 19 mph (17 kts) from 300° at 53 min
2018-04-21 01:00 36 34 32 93 270° 5 - - - 0 None

Support USWX by starting your Amazon purchase here.